sensor_id;sensor_type;location;lat;lon;timestamp;pressure;altitude;pressure_sealevel;temperature;humidity
60069;BME280;45945;53.350;55.922;2022-08-21T00:00:41;100967.59;;;17.06;76.24
60069;BME280;45945;53.350;55.922;2022-08-21T00:01:42;100968.59;;;17.12;76.13
60069;BME280;45945;53.350;55.922;2022-08-21T00:02:48;100960.72;;;17.15;75.94
60069;BME280;45945;53.350;55.922;2022-08-21T00:03:50;100975.63;;;17.12;76.10
60069;BME280;45945;53.350;55.922;2022-08-21T00:04:51;100969.44;;;17.10;76.28
60069;BME280;45945;53.350;55.922;2022-08-21T00:05:52;100964.88;;;17.01;76.41
60069;BME280;45945;53.350;55.922;2022-08-21T00:06:54;100964.81;;;16.96;76.57
60069;BME280;45945;53.350;55.922;2022-08-21T00:07:55;100963.00;;;16.92;76.81
60069;BME280;45945;53.350;55.922;2022-08-21T00:08:56;100957.38;;;16.74;77.29
60069;BME280;45945;53.350;55.922;2022-08-21T00:09:57;100958.28;;;16.74;77.58
60069;BME280;45945;53.350;55.922;2022-08-21T00:10:59;100961.91;;;16.81;76.99
60069;BME280;45945;53.350;55.922;2022-08-21T00:12:00;100962.75;;;16.80;76.72
60069;BME280;45945;53.350;55.922;2022-08-21T00:13:04;100961.75;;;16.70;77.69
60069;BME280;45945;53.350;55.922;2022-08-21T00:14:07;100951.97;;;16.66;77.72
60069;BME280;45945;53.350;55.922;2022-08-21T00:15:12;100957.38;;;16.74;77.16
60069;BME280;45945;53.350;55.922;2022-08-21T00:16:13;100953.03;;;16.76;76.75
60069;BME280;45945;53.350;55.922;2022-08-21T00:17:14;100965.47;;;16.84;76.54
60069;BME280;45945;53.350;55.922;2022-08-21T00:18:17;100961.19;;;16.88;76.54
60069;BME280;45945;53.350;55.922;2022-08-21T00:19:19;100960.06;;;16.75;77.42
60069;BME280;45945;53.350;55.922;2022-08-21T00:20:20;100960.16;;;16.81;76.91
60069;BME280;45945;53.350;55.922;2022-08-21T00:21:21;100962.94;;;16.89;76.53
60069;BME280;45945;53.350;55.922;2022-08-21T00:22:22;100959.31;;;16.84;76.60
60069;BME280;45945;53.350;55.922;2022-08-21T00:23:23;100949.56;;;16.80;76.63
60069;BME280;45945;53.350;55.922;2022-08-21T00:24:25;100965.22;;;16.68;77.46
60069;BME280;45945;53.350;55.922;2022-08-21T00:25:27;100961.47;;;16.55;77.99
60069;BME280;45945;53.350;55.922;2022-08-21T00:26:28;100963.28;;;16.59;77.56
60069;BME280;45945;53.350;55.922;2022-08-21T00:27:29;100955.28;;;16.53;77.91
60069;BME280;45945;53.350;55.922;2022-08-21T00:28:30;100956.13;;;16.50;78.27
60069;BME280;45945;53.350;55.922;2022-08-21T00:29:31;100956.16;;;16.52;78.09
60069;BME280;45945;53.350;55.922;2022-08-21T00:30:33;100949.19;;;16.57;77.71
60069;BME280;45945;53.350;55.922;2022-08-21T00:31:35;100952.59;;;16.51;78.07
60069;BME280;45945;53.350;55.922;2022-08-21T00:32:38;100959.72;;;16.55;77.82
60069;BME280;45945;53.350;55.922;2022-08-21T00:33:39;100956.28;;;16.59;77.41
60069;BME280;45945;53.350;55.922;2022-08-21T00:34:40;100965.13;;;16.63;77.62
60069;BME280;45945;53.350;55.922;2022-08-21T00:35:42;100962.56;;;16.68;77.29
60069;BME280;45945;53.350;55.922;2022-08-21T00:36:43;100964.28;;;16.64;77.77
60069;BME280;45945;53.350;55.922;2022-08-21T00:37:44;100964.38;;;16.70;77.20
60069;BME280;45945;53.350;55.922;2022-08-21T00:38:45;100967.78;;;16.63;77.80
60069;BME280;45945;53.350;55.922;2022-08-21T00:39:47;100964.22;;;16.61;77.31
60069;BME280;45945;53.350;55.922;2022-08-21T00:40:52;100971.06;;;16.51;78.19
60069;BME280;45945;53.350;55.922;2022-08-21T00:41:54;100964.88;;;16.47;78.38
60069;BME280;45945;53.350;55.922;2022-08-21T00:42:55;100957.78;;;16.45;78.50
60069;BME280;45945;53.350;55.922;2022-08-21T00:43:56;100963.16;;;16.51;78.06
60069;BME280;45945;53.350;55.922;2022-08-21T00:44:57;100957.81;;;16.46;78.13
60069;BME280;45945;53.350;55.922;2022-08-21T00:46:00;100956.91;;;16.44;78.71
60069;BME280;45945;53.350;55.922;2022-08-21T00:47:02;100956.88;;;16.43;78.26
60069;BME280;45945;53.350;55.922;2022-08-21T00:48:03;100963.25;;;16.56;77.87
60069;BME280;45945;53.350;55.922;2022-08-21T00:49:06;100964.19;;;16.58;78.27
60069;BME280;45945;53.350;55.922;2022-08-21T00:50:09;100953.50;;;16.52;78.25
60069;BME280;45945;53.350;55.922;2022-08-21T00:51:19;100959.81;;;16.61;78.20
60069;BME280;45945;53.350;55.922;2022-08-21T00:52:27;100969.63;;;16.69;77.53
60069;BME280;45945;53.350;55.922;2022-08-21T00:53:29;100968.56;;;16.59;77.95
60069;BME280;45945;53.350;55.922;2022-08-21T00:54:31;100965.94;;;16.59;77.70
60069;BME280;45945;53.350;55.922;2022-08-21T00:55:34;100968.66;;;16.65;77.82
60069;BME280;45945;53.350;55.922;2022-08-21T00:56:36;100964.31;;;16.67;77.20
60069;BME280;45945;53.350;55.922;2022-08-21T00:57:45;100965.19;;;16.66;77.39
60069;BME280;45945;53.350;55.922;2022-08-21T00:58:47;100967.81;;;16.66;76.91
60069;BME280;45945;53.350;55.922;2022-08-21T00:59:51;100965.19;;;16.66;77.06
60069;BME280;45945;53.350;55.922;2022-08-21T01:00:54;100973.94;;;16.65;76.83
60069;BME280;45945;53.350;55.922;2022-08-21T01:01:55;100966.06;;;16.66;76.68
60069;BME280;45945;53.350;55.922;2022-08-21T01:02:58;100967.00;;;16.69;76.58
60069;BME280;45945;53.350;55.922;2022-08-21T01:03:59;100972.31;;;16.70;76.35
60069;BME280;45945;53.350;55.922;2022-08-21T01:05:00;100973.22;;;16.74;76.12
60069;BME280;45945;53.350;55.922;2022-08-21T01:06:02;100960.84;;;16.71;75.84
60069;BME280;45945;53.350;55.922;2022-08-21T01:07:04;100970.50;;;16.68;76.19
60069;BME280;45945;53.350;55.922;2022-08-21T01:08:07;100968.72;;;16.68;76.31
60069;BME280;45945;53.350;55.922;2022-08-21T01:09:08;100969.59;;;16.65;76.15
60069;BME280;45945;53.350;55.922;2022-08-21T01:10:09;100975.69;;;16.63;76.50
60069;BME280;45945;53.350;55.922;2022-08-21T01:11:11;100968.66;;;16.65;76.31
60069;BME280;45945;53.350;55.922;2022-08-21T01:12:12;100970.56;;;16.72;76.23
60069;BME280;45945;53.350;55.922;2022-08-21T01:13:16;100971.53;;;16.76;76.09
60069;BME280;45945;53.350;55.922;2022-08-21T01:14:17;100970.63;;;16.75;76.17
60069;BME280;45945;53.350;55.922;2022-08-21T01:15:22;100973.22;;;16.74;76.46
60069;BME280;45945;53.350;55.922;2022-08-21T01:16:24;100983.88;;;16.78;76.51
60069;BME280;45945;53.350;55.922;2022-08-21T01:17:26;100980.41;;;16.82;76.52
60069;BME280;45945;53.350;55.922;2022-08-21T01:18:28;100976.03;;;16.84;75.93
60069;BME280;45945;53.350;55.922;2022-08-21T01:19:29;100983.09;;;16.84;76.12
60069;BME280;45945;53.350;55.922;2022-08-21T01:20:31;100980.44;;;16.84;76.21
60069;BME280;45945;53.350;55.922;2022-08-21T01:21:32;100977.91;;;16.89;75.75
60069;BME280;45945;53.350;55.922;2022-08-21T01:22:34;100983.22;;;16.90;76.29
60069;BME280;45945;53.350;55.922;2022-08-21T01:23:37;100978.81;;;16.91;75.90
60069;BME280;45945;53.350;55.922;2022-08-21T01:24:38;100990.34;;;16.94;76.37
60069;BME280;45945;53.350;55.922;2022-08-21T01:25:39;100997.31;;;16.91;76.71
60069;BME280;45945;53.350;55.922;2022-08-21T01:26:41;100996.44;;;16.90;76.53
60069;BME280;45945;53.350;55.922;2022-08-21T01:27:43;100997.31;;;16.91;76.65
60069;BME280;45945;53.350;55.922;2022-08-21T01:29:05;100999.97;;;16.92;76.41
60069;BME280;45945;53.350;55.922;2022-08-21T01:30:21;101001.81;;;16.98;76.51
60069;BME280;45945;53.350;55.922;2022-08-21T01:31:24;101004.41;;;16.93;76.53
60069;BME280;45945;53.350;55.922;2022-08-21T01:32:25;101002.63;;;16.94;76.31
60069;BME280;45945;53.350;55.922;2022-08-21T01:33:26;101006.13;;;16.90;76.91
60069;BME280;45945;53.350;55.922;2022-08-21T01:34:27;101010.41;;;16.86;77.05
60069;BME280;45945;53.350;55.922;2022-08-21T01:35:29;100999.91;;;16.89;76.77
60069;BME280;45945;53.350;55.922;2022-08-21T01:36:31;100998.22;;;16.91;76.61
60069;BME280;45945;53.350;55.922;2022-08-21T01:37:32;100999.97;;;16.92;76.44
60069;BME280;45945;53.350;55.922;2022-08-21T01:38:33;100999.94;;;16.91;76.83
60069;BME280;45945;53.350;55.922;2022-08-21T01:39:35;101007.06;;;16.95;76.42
60069;BME280;45945;53.350;55.922;2022-08-21T01:40:36;101002.63;;;16.94;76.41
60069;BME280;45945;53.350;55.922;2022-08-21T01:41:37;100996.59;;;17.01;76.16
60069;BME280;45945;53.350;55.922;2022-08-21T01:42:40;101002.59;;;16.91;76.53
60069;BME280;45945;53.350;55.922;2022-08-21T01:43:42;101006.22;;;16.96;76.58
60069;BME280;45945;53.350;55.922;2022-08-21T01:44:44;100992.03;;;16.91;76.94
60069;BME280;45945;53.350;55.922;2022-08-21T01:45:45;101000.06;;;16.95;76.31
60069;BME280;45945;53.350;55.922;2022-08-21T01:46:46;101001.88;;;17.01;75.98
60069;BME280;45945;53.350;55.922;2022-08-21T01:47:49;101004.53;;;17.01;76.12
60069;BME280;45945;53.350;55.922;2022-08-21T01:48:50;101004.56;;;17.04;75.85
60069;BME280;45945;53.350;55.922;2022-08-21T01:49:52;101007.28;;;17.09;75.72
60069;BME280;45945;53.350;55.922;2022-08-21T01:50:53;101008.16;;;17.06;76.00
60069;BME280;45945;53.350;55.922;2022-08-21T01:51:54;101001.84;;;16.99;76.50
60069;BME280;45945;53.350;55.922;2022-08-21T01:52:55;101008.06;;;17.02;76.05
60069;BME280;45945;53.350;55.922;2022-08-21T01:53:56;101006.34;;;17.05;76.10
60069;BME280;45945;53.350;55.922;2022-08-21T01:54:57;101009.06;;;17.10;75.89
60069;BME280;45945;53.350;55.922;2022-08-21T01:55:58;101009.13;;;17.14;75.91
60069;BME280;45945;53.350;55.922;2022-08-21T01:57:00;101008.16;;;17.08;76.30
60069;BME280;45945;53.350;55.922;2022-08-21T01:58:02;101003.75;;;17.07;76.08
60069;BME280;45945;53.350;55.922;2022-08-21T01:59:03;101007.28;;;17.09;75.94
60069;BME280;45945;53.350;55.922;2022-08-21T02:00:07;101011.81;;;17.17;75.81
60069;BME280;45945;53.350;55.922;2022-08-21T02:01:13;101007.41;;;17.18;75.67
60069;BME280;45945;53.350;55.922;2022-08-21T02:02:14;101011.00;;;17.20;75.50
60069;BME280;45945;53.350;55.922;2022-08-21T02:03:15;101019.81;;;17.21;76.12
60069;BME280;45945;53.350;55.922;2022-08-21T02:04:16;101017.22;;;17.25;75.62
60069;BME280;45945;53.350;55.922;2022-08-21T02:05:18;101005.72;;;17.20;75.37
60069;BME280;45945;53.350;55.922;2022-08-21T02:06:19;101018.94;;;17.22;75.69
60069;BME280;45945;53.350;55.922;2022-08-21T02:07:20;101020.81;;;17.29;75.37
60069;BME280;45945;53.350;55.922;2022-08-21T02:08:22;101026.06;;;17.26;75.81
60069;BME280;45945;53.350;55.922;2022-08-21T02:09:23;101023.50;;;17.30;75.28
60069;BME280;45945;53.350;55.922;2022-08-21T02:10:27;101021.75;;;17.32;75.19
60069;BME280;45945;53.350;55.922;2022-08-21T02:11:31;101019.88;;;17.25;75.92
60069;BME280;45945;53.350;55.922;2022-08-21T02:12:33;101020.78;;;17.26;75.72
60069;BME280;45945;53.350;55.922;2022-08-21T02:13:34;101030.53;;;17.31;75.33
60069;BME280;45945;53.350;55.922;2022-08-21T02:14:35;101027.03;;;17.32;75.73
60069;BME280;45945;53.350;55.922;2022-08-21T02:15:36;101032.28;;;17.31;75.52
60069;BME280;45945;53.350;55.922;2022-08-21T02:16:38;101035.97;;;17.41;74.89
60069;BME280;45945;53.350;55.922;2022-08-21T02:17:42;101032.53;;;17.48;74.66
60069;BME280;45945;53.350;55.922;2022-08-21T02:18:43;101035.13;;;17.43;74.93
60069;BME280;45945;53.350;55.922;2022-08-21T02:19:44;101031.72;;;17.52;74.81
60069;BME280;45945;53.350;55.922;2022-08-21T02:20:47;101030.97;;;17.59;74.20
60069;BME280;45945;53.350;55.922;2022-08-21T02:21:48;101029.13;;;17.55;74.82
60069;BME280;45945;53.350;55.922;2022-08-21T02:22:49;101028.25;;;17.54;74.62
60069;BME280;45945;53.350;55.922;2022-08-21T02:23:50;101032.56;;;17.49;75.11
60069;BME280;45945;53.350;55.922;2022-08-21T02:24:51;101037.00;;;17.50;74.79
60069;BME280;45945;53.350;55.922;2022-08-21T02:25:53;101033.53;;;17.53;75.04
60069;BME280;45945;53.350;55.922;2022-08-21T02:26:54;101027.25;;;17.48;75.20
60069;BME280;45945;53.350;55.922;2022-08-21T02:27:56;101030.91;;;17.56;74.87
60069;BME280;45945;53.350;55.922;2022-08-21T02:28:58;101034.50;;;17.61;75.03
60069;BME280;45945;53.350;55.922;2022-08-21T02:29:59;101037.16;;;17.63;74.48
60069;BME280;45945;53.350;55.922;2022-08-21T02:31:00;101027.47;;;17.63;74.30
60069;BME280;45945;53.350;55.922;2022-08-21T02:32:02;101034.66;;;17.72;74.16
60069;BME280;45945;53.350;55.922;2022-08-21T02:33:04;101026.75;;;17.75;74.15
60069;BME280;45945;53.350;55.922;2022-08-21T02:34:05;101025.91;;;17.78;74.50
60069;BME280;45945;53.350;55.922;2022-08-21T02:35:06;101027.81;;;17.88;73.67
60069;BME280;45945;53.350;55.922;2022-08-21T02:36:08;101031.31;;;17.87;73.60
60069;BME280;45945;53.350;55.922;2022-08-21T02:37:12;101031.31;;;17.87;73.99
60069;BME280;45945;53.350;55.922;2022-08-21T02:38:16;101026.06;;;17.88;73.79
60069;BME280;45945;53.350;55.922;2022-08-21T02:39:18;101026.88;;;17.86;73.85
60069;BME280;45945;53.350;55.922;2022-08-21T02:40:23;101032.38;;;17.97;73.45
60069;BME280;45945;53.350;55.922;2022-08-21T02:41:24;101031.47;;;17.96;73.48
60069;BME280;45945;53.350;55.922;2022-08-21T02:42:25;101028.03;;;18.02;73.42
60069;BME280;45945;53.350;55.922;2022-08-21T02:43:27;101018.38;;;18.07;73.08
60069;BME280;45945;53.350;55.922;2022-08-21T02:44:28;101023.63;;;18.04;73.22
60069;BME280;45945;53.350;55.922;2022-08-21T02:45:30;101014.88;;;18.08;73.11
60069;BME280;45945;53.350;55.922;2022-08-21T02:46:31;101025.50;;;18.13;73.00
60069;BME280;45945;53.350;55.922;2022-08-21T02:47:32;101023.78;;;18.15;73.10
60069;BME280;45945;53.350;55.922;2022-08-21T02:48:34;101011.47;;;18.18;73.21
60069;BME280;45945;53.350;55.922;2022-08-21T02:49:35;101021.31;;;18.30;72.41
60069;BME280;45945;53.350;55.922;2022-08-21T02:50:41;101016.88;;;18.31;72.77
60069;BME280;45945;53.350;55.922;2022-08-21T02:51:42;101022.22;;;18.34;72.41
60069;BME280;45945;53.350;55.922;2022-08-21T02:52:43;101018.72;;;18.36;72.95
60069;BME280;45945;53.350;55.922;2022-08-21T02:53:47;101017.91;;;18.42;72.29
60069;BME280;45945;53.350;55.922;2022-08-21T02:54:48;101013.47;;;18.42;72.49
60069;BME280;45945;53.350;55.922;2022-08-21T02:55:50;101023.34;;;18.57;72.05
60069;BME280;45945;53.350;55.922;2022-08-21T02:56:51;101017.19;;;18.60;72.05
60069;BME280;45945;53.350;55.922;2022-08-21T02:57:54;101016.34;;;18.66;71.76
60069;BME280;45945;53.350;55.922;2022-08-21T02:58:55;101014.56;;;18.60;71.55
60069;BME280;45945;53.350;55.922;2022-08-21T02:59:56;101024.38;;;18.75;71.53
60069;BME280;45945;53.350;55.922;2022-08-21T03:00:57;101026.22;;;18.81;71.50
60069;BME280;45945;53.350;55.922;2022-08-21T03:01:59;101022.81;;;18.92;71.55
60069;BME280;45945;53.350;55.922;2022-08-21T03:03:00;101022.06;;;19.07;70.62
60069;BME280;45945;53.350;55.922;2022-08-21T03:04:01;101021.28;;;19.22;70.13
60069;BME280;45945;53.350;55.922;2022-08-21T03:05:03;101018.78;;;19.44;69.68
60069;BME280;45945;53.350;55.922;2022-08-21T03:06:06;101028.50;;;19.45;69.64
60069;BME280;45945;53.350;55.922;2022-08-21T03:07:08;101023.25;;;19.53;69.64
60069;BME280;45945;53.350;55.922;2022-08-21T03:08:13;101029.47;;;19.58;69.48
60069;BME280;45945;53.350;55.922;2022-08-21T03:09:15;101026.00;;;19.73;69.01
60069;BME280;45945;53.350;55.922;2022-08-21T03:10:16;101031.31;;;19.74;68.91
60069;BME280;45945;53.350;55.922;2022-08-21T03:11:17;101026.09;;;19.88;68.34
60069;BME280;45945;53.350;55.922;2022-08-21T03:12:21;101028.84;;;19.97;68.42
60069;BME280;45945;53.350;55.922;2022-08-21T03:13:22;101031.56;;;20.19;67.50
60069;BME280;45945;53.350;55.922;2022-08-21T03:14:23;101012.97;;;20.16;66.88
60069;BME280;45945;53.350;55.922;2022-08-21T03:15:24;101025.38;;;20.20;66.97
60069;BME280;45945;53.350;55.922;2022-08-21T03:16:25;101029.81;;;20.26;66.74
60069;BME280;45945;53.350;55.922;2022-08-21T03:17:26;101027.22;;;20.40;66.46
60069;BME280;45945;53.350;55.922;2022-08-21T03:18:28;101024.56;;;20.55;65.55
60069;BME280;45945;53.350;55.922;2022-08-21T03:19:28;101032.53;;;20.52;65.79
60069;BME280;45945;53.350;55.922;2022-08-21T03:20:30;101026.41;;;20.67;65.75
60069;BME280;45945;53.350;55.922;2022-08-21T03:21:32;101021.94;;;20.61;65.64
60069;BME280;45945;53.350;55.922;2022-08-21T03:22:34;101022.88;;;21.06;64.91
60069;BME280;45945;53.350;55.922;2022-08-21T03:23:35;101033.47;;;21.23;64.17
60069;BME280;45945;53.350;55.922;2022-08-21T03:24:37;101027.28;;;20.74;64.73
60069;BME280;45945;53.350;55.922;2022-08-21T03:25:38;101029.97;;;21.20;64.10
60069;BME280;45945;53.350;55.922;2022-08-21T03:26:39;101034.38;;;21.18;64.08
60069;BME280;45945;53.350;55.922;2022-08-21T03:27:41;101035.28;;;21.17;64.01
60069;BME280;45945;53.350;55.922;2022-08-21T03:28:42;101041.47;;;21.20;63.31
60069;BME280;45945;53.350;55.922;2022-08-21T03:29:43;101029.97;;;21.12;63.89
60069;BME280;45945;53.350;55.922;2022-08-21T03:30:45;101027.25;;;21.41;63.06
60069;BME280;45945;53.350;55.922;2022-08-21T03:31:47;101029.03;;;21.55;63.21
60069;BME280;45945;53.350;55.922;2022-08-21T03:32:48;101030.84;;;21.19;63.21
60069;BME280;45945;53.350;55.922;2022-08-21T03:33:52;101032.56;;;21.49;63.04
60069;BME280;45945;53.350;55.922;2022-08-21T03:34:55;101023.75;;;21.32;63.49
60069;BME280;45945;53.350;55.922;2022-08-21T03:36:03;101036.09;;;21.48;63.32
60069;BME280;45945;53.350;55.922;2022-08-21T03:37:06;101029.88;;;21.80;62.02
60069;BME280;45945;53.350;55.922;2022-08-21T03:38:07;101041.38;;;21.82;61.77
60069;BME280;45945;53.350;55.922;2022-08-21T03:39:09;101027.06;;;22.09;61.59
60069;BME280;45945;53.350;55.922;2022-08-21T03:40:12;101025.25;;;22.13;61.24
60069;BME280;45945;53.350;55.922;2022-08-21T03:41:14;101025.19;;;22.36;61.22
60069;BME280;45945;53.350;55.922;2022-08-21T03:42:15;101022.38;;;22.61;59.65
60069;BME280;45945;53.350;55.922;2022-08-21T03:43:18;101023.19;;;22.71;59.41
60069;BME280;45945;53.350;55.922;2022-08-21T03:44:19;101020.38;;;22.91;58.94
60069;BME280;45945;53.350;55.922;2022-08-21T03:45:21;101023.94;;;22.87;59.21
60069;BME280;45945;53.350;55.922;2022-08-21T03:46:22;101026.34;;;23.24;58.26
60069;BME280;45945;53.350;55.922;2022-08-21T03:47:23;101021.09;;;23.10;58.81
60069;BME280;45945;53.350;55.922;2022-08-21T03:48:24;101023.75;;;23.16;58.32
60069;BME280;45945;53.350;55.922;2022-08-21T03:49:26;101030.78;;;23.23;58.33
60069;BME280;45945;53.350;55.922;2022-08-21T03:50:32;101035.00;;;23.44;58.29
60069;BME280;45945;53.350;55.922;2022-08-21T03:51:36;101036.00;;;23.39;57.87
60069;BME280;45945;53.350;55.922;2022-08-21T03:52:37;101035.91;;;23.45;57.94
60069;BME280;45945;53.350;55.922;2022-08-21T03:53:39;101034.31;;;23.28;57.76
60069;BME280;45945;53.350;55.922;2022-08-21T03:54:40;101029.84;;;23.29;57.89
60069;BME280;45945;53.350;55.922;2022-08-21T03:55:41;101035.00;;;23.46;58.07
60069;BME280;45945;53.350;55.922;2022-08-21T03:56:42;101027.44;;;23.89;56.86
60069;BME280;45945;53.350;55.922;2022-08-21T03:57:43;101038.66;;;24.18;56.07
60069;BME280;45945;53.350;55.922;2022-08-21T03:58:44;101027.09;;;24.17;55.62
60069;BME280;45945;53.350;55.922;2022-08-21T03:59:45;101033.34;;;24.15;56.15
60069;BME280;45945;53.350;55.922;2022-08-21T04:00:49;101028.00;;;24.15;55.66
60069;BME280;45945;53.350;55.922;2022-08-21T04:01:56;101028.66;;;23.56;57.20
60069;BME280;45945;53.350;55.922;2022-08-21T04:02:57;101032.09;;;23.69;57.28
60069;BME280;45945;53.350;55.922;2022-08-21T04:03:58;101031.03;;;23.84;56.84
60069;BME280;45945;53.350;55.922;2022-08-21T04:04:59;101033.38;;;24.13;56.33
60069;BME280;45945;53.350;55.922;2022-08-21T04:06:01;101030.19;;;24.52;55.30
60069;BME280;45945;53.350;55.922;2022-08-21T04:07:02;101032.63;;;24.69;55.17
60069;BME280;45945;53.350;55.922;2022-08-21T04:08:05;101034.25;;;24.79;54.92
60069;BME280;45945;53.350;55.922;2022-08-21T04:09:06;101026.00;;;24.93;53.71
60069;BME280;45945;53.350;55.922;2022-08-21T04:10:07;101038.66;;;24.80;53.95
60069;BME280;45945;53.350;55.922;2022-08-21T04:11:09;101036.78;;;24.88;53.97
60069;BME280;45945;53.350;55.922;2022-08-21T04:12:13;101030.31;;;24.41;55.18
60069;BME280;45945;53.350;55.922;2022-08-21T04:13:14;101027.63;;;24.41;55.34
60069;BME280;45945;53.350;55.922;2022-08-21T04:14:16;101032.38;;;24.84;54.49
60069;BME280;45945;53.350;55.922;2022-08-21T04:15:17;101029.41;;;25.01;54.21
60069;BME280;45945;53.350;55.922;2022-08-21T04:16:18;101023.84;;;25.12;53.77
60069;BME280;45945;53.350;55.922;2022-08-21T04:17:20;101025.28;;;24.80;54.25
60069;BME280;45945;53.350;55.922;2022-08-21T04:18:21;101021.53;;;24.92;54.24
60069;BME280;45945;53.350;55.922;2022-08-21T04:19:22;101025.69;;;25.10;54.00
60069;BME280;45945;53.350;55.922;2022-08-21T04:20:24;101022.31;;;25.52;52.79
60069;BME280;45945;53.350;55.922;2022-08-21T04:21:25;101027.31;;;25.69;52.54
60069;BME280;45945;53.350;55.922;2022-08-21T04:22:26;101031.56;;;25.34;53.12
60069;BME280;45945;53.350;55.922;2022-08-21T04:23:27;101034.16;;;25.83;52.55
60069;BME280;45945;53.350;55.922;2022-08-21T04:24:29;101032.00;;;26.03;52.25
60069;BME280;45945;53.350;55.922;2022-08-21T04:25:30;101027.25;;;25.23;53.14
60069;BME280;45945;53.350;55.922;2022-08-21T04:26:32;101034.00;;;25.46;53.21
60069;BME280;45945;53.350;55.922;2022-08-21T04:27:34;101032.59;;;25.73;52.18
60069;BME280;45945;53.350;55.922;2022-08-21T04:28:35;101020.72;;;26.29;51.09
60069;BME280;45945;53.350;55.922;2022-08-21T04:29:36;101026.72;;;26.40;50.86
60069;BME280;45945;53.350;55.922;2022-08-21T04:30:37;101035.38;;;26.53;51.09
60069;BME280;45945;53.350;55.922;2022-08-21T04:31:38;101032.66;;;25.70;51.88
60069;BME280;45945;53.350;55.922;2022-08-21T04:32:43;101035.41;;;26.11;51.18
60069;BME280;45945;53.350;55.922;2022-08-21T04:33:44;101030.66;;;25.80;51.84
60069;BME280;45945;53.350;55.922;2022-08-21T04:34:45;101036.47;;;26.44;51.01
60069;BME280;45945;53.350;55.922;2022-08-21T04:35:47;101034.38;;;26.57;50.26
60069;BME280;45945;53.350;55.922;2022-08-21T04:36:49;101039.22;;;26.80;50.28
60069;BME280;45945;53.350;55.922;2022-08-21T04:37:50;101034.94;;;27.09;49.72
60069;BME280;45945;53.350;55.922;2022-08-21T04:38:51;101038.88;;;27.30;48.94
60069;BME280;45945;53.350;55.922;2022-08-21T04:39:52;101041.78;;;27.21;48.99
60069;BME280;45945;53.350;55.922;2022-08-21T04:40:53;101040.16;;;26.79;49.92
60069;BME280;45945;53.350;55.922;2022-08-21T04:41:54;101041.59;;;26.93;49.45
60069;BME280;45945;53.350;55.922;2022-08-21T04:42:58;101034.78;;;26.79;50.13
60069;BME280;45945;53.350;55.922;2022-08-21T04:44:03;101042.59;;;26.88;50.07
60069;BME280;45945;53.350;55.922;2022-08-21T04:45:04;101033.47;;;26.58;50.68
60069;BME280;45945;53.350;55.922;2022-08-21T04:46:05;101039.50;;;27.05;49.48
60069;BME280;45945;53.350;55.922;2022-08-21T04:47:06;101034.91;;;27.11;49.54
60069;BME280;45945;53.350;55.922;2022-08-21T04:48:10;101039.72;;;26.20;50.50
60069;BME280;45945;53.350;55.922;2022-08-21T04:49:12;101043.75;;;25.50;53.32
60069;BME280;45945;53.350;55.922;2022-08-21T04:50:13;101036.31;;;26.10;52.09
60069;BME280;45945;53.350;55.922;2022-08-21T04:51:33;101036.88;;;27.04;49.92
60069;BME280;45945;53.350;55.922;2022-08-21T04:52:36;101038.81;;;26.58;50.80
60069;BME280;45945;53.350;55.922;2022-08-21T04:53:45;101041.34;;;27.03;49.95
60069;BME280;45945;53.350;55.922;2022-08-21T04:54:48;101033.84;;;26.82;50.39
60069;BME280;45945;53.350;55.922;2022-08-21T04:55:54;101038.28;;;26.83;49.89
60069;BME280;45945;53.350;55.922;2022-08-21T04:57:02;101035.66;;;27.16;49.79
60069;BME280;45945;53.350;55.922;2022-08-21T04:58:07;101028.19;;;26.93;50.07
60069;BME280;45945;53.350;55.922;2022-08-21T04:59:20;101030.56;;;26.28;51.15
60069;BME280;45945;53.350;55.922;2022-08-21T05:00:23;101029.28;;;26.45;51.51
60069;BME280;45945;53.350;55.922;2022-08-21T05:01:27;101028.22;;;26.91;49.91
60069;BME280;45945;53.350;55.922;2022-08-21T05:02:30;101029.47;;;27.12;49.96
60069;BME280;45945;53.350;55.922;2022-08-21T05:03:34;101022.00;;;27.58;48.79
60069;BME280;45945;53.350;55.922;2022-08-21T05:04:40;101025.28;;;27.69;48.95
60069;BME280;45945;53.350;55.922;2022-08-21T05:05:42;101027.44;;;27.88;48.11
60069;BME280;45945;53.350;55.922;2022-08-21T05:06:45;101024.38;;;27.37;49.39
60069;BME280;45945;53.350;55.922;2022-08-21T05:07:47;101026.31;;;27.32;49.24
60069;BME280;45945;53.350;55.922;2022-08-21T05:08:50;101025.28;;;28.02;47.99
60069;BME280;45945;53.350;55.922;2022-08-21T05:09:53;101031.94;;;27.87;48.28
60069;BME280;45945;53.350;55.922;2022-08-21T05:10:54;101032.44;;;28.32;47.79
60069;BME280;45945;53.350;55.922;2022-08-21T05:11:56;101028.38;;;28.18;47.42
60069;BME280;45945;53.350;55.922;2022-08-21T05:12:57;101029.13;;;27.92;47.93
60069;BME280;45945;53.350;55.922;2022-08-21T05:13:58;101030.75;;;27.66;48.35
60069;BME280;45945;53.350;55.922;2022-08-21T05:15:00;101022.84;;;28.23;47.03
60069;BME280;45945;53.350;55.922;2022-08-21T05:16:01;101035.47;;;27.89;47.34
60069;BME280;45945;53.350;55.922;2022-08-21T05:17:04;101029.94;;;28.25;47.67
60069;BME280;45945;53.350;55.922;2022-08-21T05:18:05;101031.66;;;28.56;46.70
60069;BME280;45945;53.350;55.922;2022-08-21T05:19:31;101022.78;;;28.83;46.85
60069;BME280;45945;53.350;55.922;2022-08-21T05:20:33;101033.75;;;29.03;45.92
60069;BME280;45945;53.350;55.922;2022-08-21T05:21:41;101033.75;;;29.30;45.42